sensor_id;sensor_type;location;lat;lon;timestamp;temperature;humidity
67603;DHT22;54417;47.454;18.918;2022-12-18T00:04:42;-3.33;89.67
67603;DHT22;54417;47.454;18.918;2022-12-18T00:10:07;-3.36;90.02
67603;DHT22;54417;47.454;18.918;2022-12-18T00:15:33;-3.47;90.38
67603;DHT22;54417;47.454;18.918;2022-12-18T00:20:59;-3.50;90.58
67603;DHT22;54417;47.454;18.918;2022-12-18T00:26:24;-3.50;90.56
67603;DHT22;54417;47.454;18.918;2022-12-18T00:31:53;-3.54;90.47
67603;DHT22;54417;47.454;18.918;2022-12-18T00:37:17;-3.47;90.25
67603;DHT22;54417;47.454;18.918;2022-12-18T00:42:45;-3.36;89.75
67603;DHT22;54417;47.454;18.918;2022-12-18T00:48:23;-3.26;89.18
67603;DHT22;54417;47.454;18.918;2022-12-18T00:53:46;-3.29;89.21
67603;DHT22;54417;47.454;18.918;2022-12-18T00:59:10;-3.29;89.21
67603;DHT22;54417;47.454;18.918;2022-12-18T01:04:35;-3.40;89.45
67603;DHT22;54417;47.454;18.918;2022-12-18T01:09:59;-3.46;89.60
67603;DHT22;54417;47.454;18.918;2022-12-18T01:15:22;-3.58;89.72
67603;DHT22;54417;47.454;18.918;2022-12-18T01:20:47;-3.60;89.60
67603;DHT22;54417;47.454;18.918;2022-12-18T01:26:13;-3.78;89.91
67603;DHT22;54417;47.454;18.918;2022-12-18T01:31:38;-4.06;90.53
67603;DHT22;54417;47.454;18.918;2022-12-18T01:37:03;-4.33;91.12
67603;DHT22;54417;47.454;18.918;2022-12-18T01:42:27;-4.37;91.87
67603;DHT22;54417;47.454;18.918;2022-12-18T01:47:53;-4.47;91.95
67603;DHT22;54417;47.454;18.918;2022-12-18T01:53:21;-4.62;92.20
67603;DHT22;54417;47.454;18.918;2022-12-18T01:58:50;-4.64;92.48
67603;DHT22;54417;47.454;18.918;2022-12-18T02:04:20;-4.68;92.67
67603;DHT22;54417;47.454;18.918;2022-12-18T02:09:48;-4.61;92.66
67603;DHT22;54417;47.454;18.918;2022-12-18T02:15:16;-4.54;92.47
67603;DHT22;54417;47.454;18.918;2022-12-18T02:20:45;-4.47;92.42
67603;DHT22;54417;47.454;18.918;2022-12-18T02:26:22;-4.50;91.98
67603;DHT22;54417;47.454;18.918;2022-12-18T02:31:52;-4.43;91.71
67603;DHT22;54417;47.454;18.918;2022-12-18T02:37:18;-4.50;91.77
67603;DHT22;54417;47.454;18.918;2022-12-18T02:42:45;-4.57;91.90
67603;DHT22;54417;47.454;18.918;2022-12-18T02:48:12;-4.60;91.96
67603;DHT22;54417;47.454;18.918;2022-12-18T02:53:42;-4.72;91.76
67603;DHT22;54417;47.454;18.918;2022-12-18T02:59:13;-4.92;91.85
67603;DHT22;54417;47.454;18.918;2022-12-18T03:04:48;-5.16;92.05
67603;DHT22;54417;47.454;18.918;2022-12-18T03:10:19;-5.30;91.97
67603;DHT22;54417;47.454;18.918;2022-12-18T03:15:48;-5.54;92.13
67603;DHT22;54417;47.454;18.918;2022-12-18T03:21:13;-5.71;92.64
67603;DHT22;54417;47.454;18.918;2022-12-18T03:26:41;-5.68;93.35
67603;DHT22;54417;47.454;18.918;2022-12-18T03:32:15;-5.73;93.28
67603;DHT22;54417;47.454;18.918;2022-12-18T03:37:40;-5.84;93.51
67603;DHT22;54417;47.454;18.918;2022-12-18T03:43:10;-5.92;93.59
67603;DHT22;54417;47.454;18.918;2022-12-18T03:48:40;-6.02;93.64
67603;DHT22;54417;47.454;18.918;2022-12-18T03:54:09;-6.03;93.68
67603;DHT22;54417;47.454;18.918;2022-12-18T03:59:39;-6.06;93.88
67603;DHT22;54417;47.454;18.918;2022-12-18T04:05:07;-5.87;94.18
67603;DHT22;54417;47.454;18.918;2022-12-18T04:10:34;-5.82;93.98
67603;DHT22;54417;47.454;18.918;2022-12-18T04:15:59;-5.77;93.84
67603;DHT22;54417;47.454;18.918;2022-12-18T04:21:24;-5.64;93.73
67603;DHT22;54417;47.454;18.918;2022-12-18T04:26:48;-5.71;93.68
67603;DHT22;54417;47.454;18.918;2022-12-18T04:32:17;-5.68;93.66
67603;DHT22;54417;47.454;18.918;2022-12-18T04:37:44;-5.67;93.51
67603;DHT22;54417;47.454;18.918;2022-12-18T04:43:08;-5.70;93.31
67603;DHT22;54417;47.454;18.918;2022-12-18T04:48:32;-5.74;93.21
67603;DHT22;54417;47.454;18.918;2022-12-18T04:53:58;-5.79;93.18
67603;DHT22;54417;47.454;18.918;2022-12-18T04:59:22;-5.81;93.22
67603;DHT22;54417;47.454;18.918;2022-12-18T05:04:46;-5.94;93.08
67603;DHT22;54417;47.454;18.918;2022-12-18T05:10:11;-6.10;92.94
67603;DHT22;54417;47.454;18.918;2022-12-18T05:15:34;-6.28;93.16
67603;DHT22;54417;47.454;18.918;2022-12-18T05:20:58;-6.26;93.54
67603;DHT22;54417;47.454;18.918;2022-12-18T05:26:23;-6.32;93.43
67603;DHT22;54417;47.454;18.918;2022-12-18T05:31:47;-6.30;93.33
67603;DHT22;54417;47.454;18.918;2022-12-18T05:37:10;-6.34;93.32
67603;DHT22;54417;47.454;18.918;2022-12-18T05:42:36;-6.34;93.30
67603;DHT22;54417;47.454;18.918;2022-12-18T05:47:59;-6.48;93.17
67603;DHT22;54417;47.454;18.918;2022-12-18T05:53:23;-6.54;93.54
67603;DHT22;54417;47.454;18.918;2022-12-18T05:58:51;-6.53;93.69
67603;DHT22;54417;47.454;18.918;2022-12-18T06:04:15;-6.63;93.26
67603;DHT22;54417;47.454;18.918;2022-12-18T06:09:39;-6.76;93.26
67603;DHT22;54417;47.454;18.918;2022-12-18T06:15:05;-6.84;93.36
67603;DHT22;54417;47.454;18.918;2022-12-18T06:20:28;-6.97;93.27
67603;DHT22;54417;47.454;18.918;2022-12-18T06:25:55;-7.04;93.53
67603;DHT22;54417;47.454;18.918;2022-12-18T06:31:20;-7.13;93.42
67603;DHT22;54417;47.454;18.918;2022-12-18T06:36:44;-7.12;93.52
67603;DHT22;54417;47.454;18.918;2022-12-18T06:42:07;-7.05;94.05
67603;DHT22;54417;47.454;18.918;2022-12-18T06:47:32;-6.76;94.24
67603;DHT22;54417;47.454;18.918;2022-12-18T06:52:56;-6.53;93.94
67603;DHT22;54417;47.454;18.918;2022-12-18T06:58:20;-6.29;93.49
67603;DHT22;54417;47.454;18.918;2022-12-18T07:03:45;-6.15;93.18
67603;DHT22;54417;47.454;18.918;2022-12-18T07:09:09;-6.03;92.77
67603;DHT22;54417;47.454;18.918;2022-12-18T07:14:32;-5.99;92.53
67603;DHT22;54417;47.454;18.918;2022-12-18T07:19:58;-5.89;92.32
67603;DHT22;54417;47.454;18.918;2022-12-18T07:25:21;-5.70;92.18
67603;DHT22;54417;47.454;18.918;2022-12-18T07:30:45;-5.50;92.21
67603;DHT22;54417;47.454;18.918;2022-12-18T07:36:10;-5.36;91.69
67603;DHT22;54417;47.454;18.918;2022-12-18T07:41:34;-5.15;91.45
67603;DHT22;54417;47.454;18.918;2022-12-18T07:47:03;-4.96;91.25
67603;DHT22;54417;47.454;18.918;2022-12-18T07:52:34;-4.75;91.23
67603;DHT22;54417;47.454;18.918;2022-12-18T07:58:00;-4.54;90.82
67603;DHT22;54417;47.454;18.918;2022-12-18T08:03:24;-4.27;90.49
67603;DHT22;54417;47.454;18.918;2022-12-18T08:08:50;-4.06;90.12
67603;DHT22;54417;47.454;18.918;2022-12-18T08:14:14;-3.89;89.90
67603;DHT22;54417;47.454;18.918;2022-12-18T08:19:39;-3.72;89.82
67603;DHT22;54417;47.454;18.918;2022-12-18T08:25:05;-3.55;89.51
67603;DHT22;54417;47.454;18.918;2022-12-18T08:30:28;-3.40;89.58
67603;DHT22;54417;47.454;18.918;2022-12-18T08:35:52;-3.17;89.54
67603;DHT22;54417;47.454;18.918;2022-12-18T08:41:18;-2.99;89.45
67603;DHT22;54417;47.454;18.918;2022-12-18T08:46:44;-2.76;88.99
67603;DHT22;54417;47.454;18.918;2022-12-18T08:52:07;-2.62;88.53
67603;DHT22;54417;47.454;18.918;2022-12-18T08:57:32;-2.47;88.44
67603;DHT22;54417;47.454;18.918;2022-12-18T09:02:56;-2.37;87.96
67603;DHT22;54417;47.454;18.918;2022-12-18T09:08:20;-2.19;88.42
67603;DHT22;54417;47.454;18.918;2022-12-18T09:13:45;-2.02;87.40
67603;DHT22;54417;47.454;18.918;2022-12-18T09:19:09;-1.85;85.18
67603;DHT22;54417;47.454;18.918;2022-12-18T09:24:33;-1.72;85.53
67603;DHT22;54417;47.454;18.918;2022-12-18T09:29:58;-1.59;84.41
67603;DHT22;54417;47.454;18.918;2022-12-18T09:35:22;-1.52;84.26
67603;DHT22;54417;47.454;18.918;2022-12-18T09:40:48;-1.33;85.16
67603;DHT22;54417;47.454;18.918;2022-12-18T09:46:18;-1.17;84.44
67603;DHT22;54417;47.454;18.918;2022-12-18T09:51:46;-1.00;83.95
67603;DHT22;54417;47.454;18.918;2022-12-18T09:57:13;-0.89;83.74
67603;DHT22;54417;47.454;18.918;2022-12-18T10:02:39;-0.79;83.60
67603;DHT22;54417;47.454;18.918;2022-12-18T10:08:05;-0.64;83.27
67603;DHT22;54417;47.454;18.918;2022-12-18T10:13:36;-0.52;82.33
67603;DHT22;54417;47.454;18.918;2022-12-18T10:19:11;-0.39;81.79
67603;DHT22;54417;47.454;18.918;2022-12-18T10:24:44;-0.29;81.51
67603;DHT22;54417;47.454;18.918;2022-12-18T10:30:14;-0.27;80.56
67603;DHT22;54417;47.454;18.918;2022-12-18T10:35:40;-0.25;81.01
67603;DHT22;54417;47.454;18.918;2022-12-18T10:41:06;-0.17;80.76
67603;DHT22;54417;47.454;18.918;2022-12-18T10:46:33;0.00;81.01
67603;DHT22;54417;47.454;18.918;2022-12-18T10:52:14;0.14;80.51
67603;DHT22;54417;47.454;18.918;2022-12-18T10:57:39;0.14;78.84
67603;DHT22;54417;47.454;18.918;2022-12-18T11:03:29;0.24;77.45
67603;DHT22;54417;47.454;18.918;2022-12-18T11:09:00;0.36;76.76
67603;DHT22;54417;47.454;18.918;2022-12-18T11:14:32;0.48;75.60
67603;DHT22;54417;47.454;18.918;2022-12-18T11:19:58;0.52;74.52
67603;DHT22;54417;47.454;18.918;2022-12-18T11:25:23;0.58;74.90
67603;DHT22;54417;47.454;18.918;2022-12-18T11:31:12;0.59;75.30
67603;DHT22;54417;47.454;18.918;2022-12-18T11:36:42;0.68;75.02
67603;DHT22;54417;47.454;18.918;2022-12-18T11:42:13;0.71;74.94
67603;DHT22;54417;47.454;18.918;2022-12-18T11:47:42;0.79;74.29
67603;DHT22;54417;47.454;18.918;2022-12-18T11:53:10;0.83;74.83
67603;DHT22;54417;47.454;18.918;2022-12-18T11:58:46;0.90;74.03
67603;DHT22;54417;47.454;18.918;2022-12-18T12:04:30;0.86;73.84
67603;DHT22;54417;47.454;18.918;2022-12-18T12:10:08;0.82;73.36
67603;DHT22;54417;47.454;18.918;2022-12-18T12:15:44;0.80;74.04
67603;DHT22;54417;47.454;18.918;2022-12-18T12:21:16;0.79;73.81
67603;DHT22;54417;47.454;18.918;2022-12-18T12:26:49;0.86;72.32
67603;DHT22;54417;47.454;18.918;2022-12-18T12:32:25;0.92;72.02
67603;DHT22;54417;47.454;18.918;2022-12-18T12:38:00;0.89;71.10
67603;DHT22;54417;47.454;18.918;2022-12-18T12:43:33;0.92;71.12
67603;DHT22;54417;47.454;18.918;2022-12-18T12:49:01;0.89;70.31
67603;DHT22;54417;47.454;18.918;2022-12-18T12:54:26;0.90;71.68
67603;DHT22;54417;47.454;18.918;2022-12-18T12:59:58;0.83;71.92
67603;DHT22;54417;47.454;18.918;2022-12-18T13:05:29;0.82;72.22
67603;DHT22;54417;47.454;18.918;2022-12-18T13:10:54;0.85;71.61
67603;DHT22;54417;47.454;18.918;2022-12-18T13:16:41;0.71;74.01
67603;DHT22;54417;47.454;18.918;2022-12-18T13:22:20;0.68;75.03
67603;DHT22;54417;47.454;18.918;2022-12-18T13:28:02;0.72;75.36
67603;DHT22;54417;47.454;18.918;2022-12-18T13:33:49;0.54;76.40
67603;DHT22;54417;47.454;18.918;2022-12-18T13:39:35;0.50;76.82
67603;DHT22;54417;47.454;18.918;2022-12-18T13:45:00;0.24;77.80
67603;DHT22;54417;47.454;18.918;2022-12-18T13:50:25;0.07;78.66
67603;DHT22;54417;47.454;18.918;2022-12-18T13:55:59;-0.06;79.08
67603;DHT22;54417;47.454;18.918;2022-12-18T14:01:23;-0.08;79.29
67603;DHT22;54417;47.454;18.918;2022-12-18T14:06:47;-0.15;79.98
67603;DHT22;54417;47.454;18.918;2022-12-18T14:12:17;-0.38;80.51
67603;DHT22;54417;47.454;18.918;2022-12-18T14:18:00;-0.59;81.75
67603;DHT22;54417;47.454;18.918;2022-12-18T14:23:26;-0.82;82.36
67603;DHT22;54417;47.454;18.918;2022-12-18T14:28:52;-1.11;83.77
67603;DHT22;54417;47.454;18.918;2022-12-18T14:34:16;-1.38;84.31
67603;DHT22;54417;47.454;18.918;2022-12-18T14:39:52;-1.58;85.83
67603;DHT22;54417;47.454;18.918;2022-12-18T14:45:34;-1.81;86.33
67603;DHT22;54417;47.454;18.918;2022-12-18T14:51:06;-2.05;87.93
67603;DHT22;54417;47.454;18.918;2022-12-18T14:56:32;-2.32;87.74
67603;DHT22;54417;47.454;18.918;2022-12-18T15:02:01;-2.54;88.81
67603;DHT22;54417;47.454;18.918;2022-12-18T15:07:39;-2.71;89.13
67603;DHT22;54417;47.454;18.918;2022-12-18T15:13:09;-2.89;89.89
67603;DHT22;54417;47.454;18.918;2022-12-18T15:18:41;-2.99;90.69
67603;DHT22;54417;47.454;18.918;2022-12-18T15:24:16;-2.89;90.61
67603;DHT22;54417;47.454;18.918;2022-12-18T15:29:41;-3.07;90.31
67603;DHT22;54417;47.454;18.918;2022-12-18T15:35:14;-3.19;90.77
67603;DHT22;54417;47.454;18.918;2022-12-18T15:40:38;-3.26;91.08
67603;DHT22;54417;47.454;18.918;2022-12-18T15:46:03;-3.44;91.04
67603;DHT22;54417;47.454;18.918;2022-12-18T15:51:31;-3.61;91.88
67603;DHT22;54417;47.454;18.918;2022-12-18T15:56:55;-3.41;92.17
67603;DHT22;54417;47.454;18.918;2022-12-18T16:02:37;-3.40;91.66
67603;DHT22;54417;47.454;18.918;2022-12-18T16:08:03;-3.60;91.58
67603;DHT22;54417;47.454;18.918;2022-12-18T16:13:27;-3.77;91.53
67603;DHT22;54417;47.454;18.918;2022-12-18T16:18:51;-3.93;91.56
67603;DHT22;54417;47.454;18.918;2022-12-18T16:24:17;-4.10;91.93
67603;DHT22;54417;47.454;18.918;2022-12-18T16:29:41;-4.16;92.48
67603;DHT22;54417;47.454;18.918;2022-12-18T16:35:05;-4.09;92.69
67603;DHT22;54417;47.454;18.918;2022-12-18T16:40:32;-4.34;92.27
67603;DHT22;54417;47.454;18.918;2022-12-18T16:46:16;-4.47;92.51
67603;DHT22;54417;47.454;18.918;2022-12-18T16:51:40;-4.57;92.68
67603;DHT22;54417;47.454;18.918;2022-12-18T16:57:05;-4.58;93.08
67603;DHT22;54417;47.454;18.918;2022-12-18T17:02:29;-4.74;92.80
67603;DHT22;54417;47.454;18.918;2022-12-18T17:07:53;-4.81;92.73
67603;DHT22;54417;47.454;18.918;2022-12-18T17:13:18;-4.89;92.81
67603;DHT22;54417;47.454;18.918;2022-12-18T17:18:47;-4.96;92.89
67603;DHT22;54417;47.454;18.918;2022-12-18T17:24:11;-4.92;93.73
67603;DHT22;54417;47.454;18.918;2022-12-18T17:29:36;-4.96;93.35
67603;DHT22;54417;47.454;18.918;2022-12-18T17:35:08;-5.08;93.06
67603;DHT22;54417;47.454;18.918;2022-12-18T17:40:32;-5.23;93.20
67603;DHT22;54417;47.454;18.918;2022-12-18T17:46:00;-5.24;93.19
67603;DHT22;54417;47.454;18.918;2022-12-18T17:51:27;-5.36;92.81
67603;DHT22;54417;47.454;18.918;2022-12-18T17:56:51;-5.47;93.00
67603;DHT22;54417;47.454;18.918;2022-12-18T18:02:16;-5.54;93.40
67603;DHT22;54417;47.454;18.918;2022-12-18T18:07:40;-5.61;93.24
67603;DHT22;54417;47.454;18.918;2022-12-18T18:13:05;-5.64;93.39
67603;DHT22;54417;47.454;18.918;2022-12-18T18:18:47;-5.70;93.14
67603;DHT22;54417;47.454;18.918;2022-12-18T18:24:13;-5.71;93.21
67603;DHT22;54417;47.454;18.918;2022-12-18T18:29:36;-5.79;93.12
67603;DHT22;54417;47.454;18.918;2022-12-18T18:35:02;-5.82;93.21
67603;DHT22;54417;47.454;18.918;2022-12-18T18:40:26;-5.88;93.51
67603;DHT22;54417;47.454;18.918;2022-12-18T18:45:54;-5.85;93.42
67603;DHT22;54417;47.454;18.918;2022-12-18T18:51:20;-5.95;93.75
67603;DHT22;54417;47.454;18.918;2022-12-18T18:56:44;-5.99;93.59
67603;DHT22;54417;47.454;18.918;2022-12-18T19:02:27;-5.97;94.13
67603;DHT22;54417;47.454;18.918;2022-12-18T19:07:54;-5.98;93.88
67603;DHT22;54417;47.454;18.918;2022-12-18T19:13:18;-6.03;94.02
67603;DHT22;54417;47.454;18.918;2022-12-18T19:18:46;-5.95;94.08
67603;DHT22;54417;47.454;18.918;2022-12-18T19:24:11;-6.03;93.62
67603;DHT22;54417;47.454;18.918;2022-12-18T19:29:35;-6.15;93.13
67603;DHT22;54417;47.454;18.918;2022-12-18T19:34:59;-6.36;92.90
67603;DHT22;54417;47.454;18.918;2022-12-18T19:40:27;-6.60;92.81
67603;DHT22;54417;47.454;18.918;2022-12-18T19:45:53;-6.67;93.27
67603;DHT22;54417;47.454;18.918;2022-12-18T19:51:20;-6.71;93.41
67603;DHT22;54417;47.454;18.918;2022-12-18T19:56:46;-6.74;93.26
67603;DHT22;54417;47.454;18.918;2022-12-18T20:02:12;-6.71;93.10
67603;DHT22;54417;47.454;18.918;2022-12-18T20:07:36;-6.91;93.38
67603;DHT22;54417;47.454;18.918;2022-12-18T20:13:03;-6.95;93.40
67603;DHT22;54417;47.454;18.918;2022-12-18T20:18:27;-6.89;94.09
67603;DHT22;54417;47.454;18.918;2022-12-18T20:23:51;-6.84;94.38
67603;DHT22;54417;47.454;18.918;2022-12-18T20:29:17;-6.63;94.76
67603;DHT22;54417;47.454;18.918;2022-12-18T20:34:41;-6.67;94.17
67603;DHT22;54417;47.454;18.918;2022-12-18T20:40:07;-6.77;93.93
67603;DHT22;54417;47.454;18.918;2022-12-18T20:45:33;-6.80;93.77
67603;DHT22;54417;47.454;18.918;2022-12-18T20:51:02;-6.91;93.62
67603;DHT22;54417;47.454;18.918;2022-12-18T20:56:27;-6.83;93.64
67603;DHT22;54417;47.454;18.918;2022-12-18T21:01:53;-6.95;93.29
67603;DHT22;54417;47.454;18.918;2022-12-18T21:07:17;-6.97;93.38
67603;DHT22;54417;47.454;18.918;2022-12-18T21:12:41;-6.98;93.31
67603;DHT22;54417;47.454;18.918;2022-12-18T21:18:22;-6.95;93.34
67603;DHT22;54417;47.454;18.918;2022-12-18T21:23:46;-6.94;93.17
67603;DHT22;54417;47.454;18.918;2022-12-18T21:29:11;-6.97;93.16
67603;DHT22;54417;47.454;18.918;2022-12-18T21:34:38;-7.01;93.30
67603;DHT22;54417;47.454;18.918;2022-12-18T21:40:10;-6.91;93.52
67603;DHT22;54417;47.454;18.918;2022-12-18T21:45:34;-6.87;93.47
67603;DHT22;54417;47.454;18.918;2022-12-18T21:50:59;-6.88;93.63
67603;DHT22;54417;47.454;18.918;2022-12-18T21:56:23;-6.94;93.54
67603;DHT22;54417;47.454;18.918;2022-12-18T22:01:48;-6.92;93.42
67603;DHT22;54417;47.454;18.918;2022-12-18T22:07:14;-6.97;93.56
67603;DHT22;54417;47.454;18.918;2022-12-18T22:12:38;-7.01;93.80
67603;DHT22;54417;47.454;18.918;2022-12-18T22:18:06;-7.08;93.62
67603;DHT22;54417;47.454;18.918;2022-12-18T22:23:32;-7.12;93.29
67603;DHT22;54417;47.454;18.918;2022-12-18T22:28:56;-7.16;93.29
67603;DHT22;54417;47.454;18.918;2022-12-18T22:34:37;-7.22;93.05
67603;DHT22;54417;47.454;18.918;2022-12-18T22:40:03;-7.29;92.91
67603;DHT22;54417;47.454;18.918;2022-12-18T22:45:29;-7.33;93.28
67603;DHT22;54417;47.454;18.918;2022-12-18T22:50:55;-7.30;94.01
67603;DHT22;54417;47.454;18.918;2022-12-18T22:56:22;-7.27;93.96
67603;DHT22;54417;47.454;18.918;2022-12-18T23:01:47;-7.33;93.87
67603;DHT22;54417;47.454;18.918;2022-12-18T23:07:14;-7.42;93.69
67603;DHT22;54417;47.454;18.918;2022-12-18T23:12:39;-7.51;93.51
67603;DHT22;54417;47.454;18.918;2022-12-18T23:18:03;-7.58;93.25
67603;DHT22;54417;47.454;18.918;2022-12-18T23:23:32;-7.70;93.31
67603;DHT22;54417;47.454;18.918;2022-12-18T23:28:57;-7.73;93.49
67603;DHT22;54417;47.454;18.918;2022-12-18T23:34:22;-7.71;93.24
67603;DHT22;54417;47.454;18.918;2022-12-18T23:39:46;-7.80;93.06
67603;DHT22;54417;47.454;18.918;2022-12-18T23:45:11;-7.77;93.45
67603;DHT22;54417;47.454;18.918;2022-12-18T23:50:39;-7.88;93.29
67603;DHT22;54417;47.454;18.918;2022-12-18T23:56:03;-7.90;93.31
